Time;durP1;ratioP1;P1;durP2;ratioP2;P2;SDS_P1;SDS_P2;PMS_P1;PMS_P2;Temp;Humidity;BMP_temperature;BMP_pressure;BME280_temperature;BME280_humidity;BME280_pressure;Samples;Min_cycle;Max_cycle;Signal;HPM_P1;HPM_P2
2022/06/24 00:00:09;;;;;;;1.50;1.38;;;13.10;57.90;;;;;;4979080;28;20678;-58
2022/06/24 00:02:41;;;;;;;1.70;1.40;;;13.10;57.90;;;;;;4990583;28;20315;-58
2022/06/24 00:05:13;;;;;;;1.45;1.20;;;13.20;57.90;;;;;;4971095;28;20205;-58
2022/06/24 00:07:50;;;;;;;1.40;1.10;;;13.20;57.90;;;;;;4973318;28;20202;-58
2022/06/24 00:10:24;;;;;;;1.45;1.27;;;13.20;57.90;;;;;;4972240;28;20226;-57
2022/06/24 00:12:55;;;;;;;1.40;1.30;;;13.30;58.00;;;;;;4972573;28;20202;-57
2022/06/24 00:15:30;;;;;;;1.77;1.52;;;13.30;58.00;;;;;;4980754;28;20197;-57
2022/06/24 00:18:13;;;;;;;1.30;1.20;;;13.30;58.00;;;;;;4992188;28;20205;-58
2022/06/24 00:20:46;;;;;;;1.67;1.25;;;13.40;58.00;;;;;;4992099;28;20271;-58
2022/06/24 00:23:20;;;;;;;1.13;1.02;;;13.40;58.00;;;;;;4992458;28;20225;-55
2022/06/24 00:25:53;;;;;;;2.03;1.48;;;13.40;58.00;;;;;;4991421;28;20221;-57
2022/06/24 00:28:28;;;;;;;1.88;1.38;;;13.40;58.00;;;;;;4984057;28;20273;-58
2022/06/24 00:30:59;;;;;;;2.72;1.63;;;13.40;58.00;;;;;;4973231;28;20229;-58
2022/06/24 00:33:35;;;;;;;1.80;1.40;;;13.50;58.20;;;;;;4971541;28;20214;-58
2022/06/24 00:36:07;;;;;;;2.95;1.38;;;13.50;58.20;;;;;;4972603;28;20190;-58
2022/06/24 00:38:38;;;;;;;2.47;1.63;;;13.50;58.20;;;;;;4971846;28;20234;-58
2022/06/24 00:41:14;;;;;;;1.67;1.30;;;13.60;58.20;;;;;;4972633;28;20586;-57
2022/06/24 00:43:45;;;;;;;3.92;2.03;;;13.60;58.20;;;;;;4972400;28;20202;-58
2022/06/24 00:46:19;;;;;;;4.78;2.28;;;13.60;58.20;;;;;;4973097;28;20201;-59
2022/06/24 00:48:54;;;;;;;2.67;1.80;;;13.60;58.30;;;;;;4972027;28;20559;-59
2022/06/24 00:51:25;;;;;;;2.50;1.65;;;13.70;58.30;;;;;;4972196;28;20200;-59
2022/06/24 00:53:58;;;;;;;3.85;1.90;;;13.70;58.30;;;;;;4972312;28;20198;-58
2022/06/24 00:56:31;;;;;;;3.08;1.80;;;13.70;58.30;;;;;;4972845;28;20658;-58
2022/06/24 00:59:03;;;;;;;4.22;1.98;;;13.70;58.30;;;;;;4972643;28;20194;-59
2022/06/24 01:01:35;;;;;;;2.90;1.80;;;13.70;58.20;;;;;;4972011;28;20558;-58
2022/06/24 01:04:07;;;;;;;3.33;2.15;;;13.80;58.30;;;;;;4970761;28;20198;-59
2022/06/24 01:06:39;;;;;;;3.38;1.70;;;13.80;58.30;;;;;;4971990;28;20253;-58
2022/06/24 01:09:10;;;;;;;2.58;1.67;;;13.80;58.30;;;;;;4971965;28;20202;-59
2022/06/24 01:11:44;;;;;;;4.35;1.95;;;13.80;58.20;;;;;;4970629;28;20574;-58
2022/06/24 01:14:15;;;;;;;3.20;2.00;;;13.90;58.30;;;;;;4972412;28;20285;-58
2022/06/24 01:16:46;;;;;;;2.80;1.90;;;13.90;58.30;;;;;;4972346;28;20209;-58
2022/06/24 01:19:17;;;;;;;4.38;2.00;;;13.90;58.30;;;;;;4971729;28;20232;-58
2022/06/24 01:21:51;;;;;;;3.55;1.50;;;13.90;58.20;;;;;;4972096;28;20232;-59
2022/06/24 01:24:23;;;;;;;2.42;1.60;;;13.90;58.20;;;;;;4971994;28;20670;-59
2022/06/24 01:26:55;;;;;;;2.28;1.52;;;14.00;58.20;;;;;;4988450;28;20205;-58
2022/06/24 01:29:26;;;;;;;2.53;1.75;;;14.00;58.20;;;;;;4991960;28;20564;-58
2022/06/24 01:31:58;;;;;;;3.13;1.75;;;14.00;58.20;;;;;;4991948;28;20197;-58
2022/06/24 01:34:28;;;;;;;3.38;1.67;;;14.00;58.20;;;;;;4991326;28;20198;-59
2022/06/24 01:37:01;;;;;;;2.75;1.90;;;14.00;58.20;;;;;;4983012;28;20217;-59
2022/06/24 01:39:32;;;;;;;8.38;2.38;;;14.10;58.20;;;;;;4971963;28;20226;-58
2022/06/24 01:42:03;;;;;;;1.90;1.63;;;14.10;58.20;;;;;;4971516;28;20226;-59
2022/06/24 01:44:34;;;;;;;2.20;1.80;;;14.10;58.20;;;;;;4972132;28;20569;-59
2022/06/24 01:47:05;;;;;;;3.88;1.98;;;14.10;58.20;;;;;;4972545;28;20212;-59
2022/06/24 01:49:36;;;;;;;2.88;1.60;;;14.10;58.20;;;;;;4972236;28;20218;-59
2022/06/24 01:52:09;;;;;;;3.85;1.83;;;14.20;58.20;;;;;;4972120;28;20206;-59
2022/06/24 01:54:40;;;;;;;3.08;1.85;;;14.20;58.20;;;;;;4972770;28;20194;-60
2022/06/24 01:57:10;;;;;;;2.88;1.50;;;14.20;58.20;;;;;;4971988;28;20221;-58
2022/06/24 01:59:41;;;;;;;2.17;1.73;;;14.20;58.80;;;;;;4972280;28;20265;-59
2022/06/24 02:02:12;;;;;;;2.50;1.80;;;14.20;58.20;;;;;;4971713;28;20218;-59
2022/06/24 02:04:43;;;;;;;4.05;1.80;;;14.20;58.20;;;;;;4972040;28;20198;-58
2022/06/24 02:07:15;;;;;;;5.43;2.20;;;14.30;58.20;;;;;;4971647;28;20205;-59
2022/06/24 02:15:20;;;;;;;4.97;1.88;;;14.40;58.30;;;;;;4971451;28;20205;-58
2022/06/24 02:17:50;;;;;;;2.53;2.10;;;14.30;58.20;;;;;;4971249;28;20209;-59
2022/06/24 02:20:21;;;;;;;3.05;1.90;;;14.30;58.10;;;;;;4971740;28;20226;-59
2022/06/24 02:22:54;;;;;;;2.97;1.83;;;14.40;58.30;;;;;;4974241;28;20221;-60
2022/06/24 02:25:24;;;;;;;2.88;1.75;;;14.40;58.20;;;;;;4975877;28;20206;-58
2022/06/24 02:27:55;;;;;;;2.35;1.85;;;14.40;58.20;;;;;;4975131;28;20230;-58
2022/06/24 02:30:26;;;;;;;2.65;1.83;;;14.40;58.30;;;;;;4975247;28;20222;-59
2022/06/24 02:32:57;;;;;;;3.05;1.73;;;14.40;58.30;;;;;;4975440;28;20229;-59
2022/06/24 02:35:27;;;;;;;2.63;1.60;;;14.50;58.30;;;;;;4975035;28;20205;-59
2022/06/24 02:38:00;;;;;;;3.13;2.33;;;14.50;58.30;;;;;;4975249;28;20213;-59
2022/06/24 02:40:49;;;;;;;3.25;2.10;;;14.50;58.40;;;;;;4975588;28;20229;-59
2022/06/24 02:43:21;;;;;;;3.90;1.92;;;14.50;58.40;;;;;;4975155;28;20230;-59
2022/06/24 02:45:53;;;;;;;2.58;1.98;;;14.50;58.40;;;;;;4975418;28;20201;-58
2022/06/24 02:48:25;;;;;;;2.55;1.90;;;14.50;58.40;;;;;;4975359;28;20681;-58
2022/06/24 02:50:56;;;;;;;3.88;1.75;;;14.50;58.40;;;;;;4975036;28;20221;-58
2022/06/24 02:53:30;;;;;;;2.88;2.03;;;14.60;58.50;;;;;;4975196;28;20673;-59
2022/06/24 02:56:02;;;;;;;2.30;1.80;;;14.60;58.50;;;;;;4975057;28;20264;-59
2022/06/24 02:58:34;;;;;;;2.78;1.67;;;14.60;58.50;;;;;;4974330;28;20206;-58
2022/06/24 03:01:05;;;;;;;3.13;2.00;;;14.60;58.50;;;;;;4973980;28;20241;-59
2022/06/24 03:03:36;;;;;;;2.72;1.80;;;14.60;58.50;;;;;;4974412;28;20234;-58
2022/06/24 03:06:08;;;;;;;3.65;1.95;;;14.60;58.50;;;;;;4975037;28;20198;-59
2022/06/24 03:08:40;;;;;;;2.10;1.60;;;14.70;58.50;;;;;;4974776;28;20198;-60
2022/06/24 03:11:12;;;;;;;2.17;1.60;;;14.70;58.50;;;;;;4968576;28;20886;-59
2022/06/24 03:13:42;;;;;;;3.15;2.00;;;14.70;58.40;;;;;;4971612;28;20202;-58
2022/06/24 03:16:13;;;;;;;2.45;1.75;;;14.70;58.40;;;;;;4974072;28;20647;-59
2022/06/24 03:18:44;;;;;;;2.78;2.05;;;14.70;58.40;;;;;;4973722;28;20217;-59
2022/06/24 03:21:14;;;;;;;2.53;1.92;;;14.70;58.50;;;;;;4973344;28;20217;-59
2022/06/24 03:23:47;;;;;;;2.63;1.92;;;14.70;58.50;;;;;;4974054;28;20236;-58
2022/06/24 03:26:17;;;;;;;2.70;1.92;;;14.70;58.50;;;;;;4973980;28;20203;-58
2022/06/24 03:28:51;;;;;;;3.00;1.83;;;14.70;58.50;;;;;;4974020;28;20201;-58
2022/06/24 03:31:22;;;;;;;2.13;1.73;;;14.70;58.40;;;;;;4973348;28;20288;-58
2022/06/24 03:33:53;;;;;;;2.83;1.70;;;14.70;58.40;;;;;;4972612;28;20208;-58
2022/06/24 03:36:24;;;;;;;2.47;1.73;;;14.70;58.40;;;;;;4973580;28;20824;-58
2022/06/24 03:38:57;;;;;;;3.25;2.10;;;14.70;58.40;;;;;;4973380;28;20202;-58
2022/06/24 03:41:28;;;;;;;2.53;1.75;;;14.80;58.40;;;;;;4973793;28;20194;-58
2022/06/24 03:43:58;;;;;;;1.92;1.77;;;14.80;58.40;;;;;;4974228;28;20640;-58
2022/06/24 03:46:29;;;;;;;2.72;2.00;;;14.80;58.40;;;;;;4973800;28;20202;-58
2022/06/24 03:49:00;;;;;;;3.20;1.83;;;14.80;58.40;;;;;;4972883;28;20202;-58
2022/06/24 03:51:30;;;;;;;2.53;2.00;;;14.80;58.40;;;;;;4973620;28;20674;-59
2022/06/24 03:54:03;;;;;;;2.33;1.60;;;14.80;58.40;;;;;;4973451;28;20194;-59
2022/06/24 03:56:34;;;;;;;1.77;1.40;;;14.80;58.40;;;;;;4988471;23;20619;-49
2022/06/24 03:59:04;;;;;;;2.22;1.65;;;14.80;58.40;;;;;;4986414;28;20194;-48
2022/06/24 04:01:35;;;;;;;1.90;1.70;;;14.80;58.40;;;;;;4973273;28;20198;-51
2022/06/24 04:04:06;;;;;;;2.25;1.80;;;14.80;58.40;;;;;;4972963;28;20233;-50
2022/06/24 04:06:37;;;;;;;2.70;1.98;;;14.80;58.40;;;;;;4973078;28;20202;-49
2022/06/24 04:09:10;;;;;;;2.47;1.60;;;14.80;58.40;;;;;;4973020;28;20650;-50
2022/06/24 04:11:40;;;;;;;2.35;1.70;;;14.80;58.40;;;;;;4972797;28;20202;-52
2022/06/24 04:14:11;;;;;;;2.17;1.80;;;14.80;58.40;;;;;;4973475;28;20683;-52
2022/06/24 04:16:42;;;;;;;2.17;1.90;;;14.80;58.40;;;;;;4971358;28;20206;-51
2022/06/24 04:19:13;;;;;;;2.55;1.92;;;14.80;58.40;;;;;;4972351;28;20701;-49
2022/06/24 04:21:43;;;;;;;4.38;2.28;;;14.80;58.40;;;;;;4972597;28;20187;-50
2022/06/24 04:24:16;;;;;;;2.00;1.73;;;14.90;58.50;;;;;;4972569;28;20225;-52
2022/06/24 04:26:47;;;;;;;2.20;1.80;;;14.80;58.40;;;;;;4972841;28;20190;-51
2022/06/24 04:29:18;;;;;;;2.95;1.90;;;14.90;58.50;;;;;;4972814;28;20602;-50
2022/06/24 04:31:48;;;;;;;3.40;1.77;;;14.80;58.40;;;;;;4972114;28;20186;-49
2022/06/24 04:34:19;;;;;;;2.28;1.60;;;14.80;58.40;;;;;;4953864;29;20682;-49
2022/06/24 04:36:50;;;;;;;2.10;1.70;;;14.80;58.40;;;;;;4960578;28;20194;-52
2022/06/24 04:39:22;;;;;;;2.03;1.83;;;14.80;58.40;;;;;;4972137;28;20228;-53
2022/06/24 04:41:53;;;;;;;2.70;1.88;;;14.80;58.40;;;;;;4973161;28;20197;-50
2022/06/24 04:44:24;;;;;;;2.08;1.60;;;14.80;58.40;;;;;;4972152;28;20693;-54
2022/06/24 04:46:55;;;;;;;4.88;1.52;;;14.80;58.40;;;;;;4972196;28;20198;-52
2022/06/24 04:49:25;;;;;;;2.63;1.90;;;14.90;58.40;;;;;;4971901;28;20218;-52
2022/06/24 04:51:56;;;;;;;2.05;1.48;;;14.90;58.50;;;;;;4972877;28;20226;-53
2022/06/24 04:54:29;;;;;;;1.83;1.67;;;14.90;58.50;;;;;;4972143;28;20194;-49
2022/06/24 05:15:10;;;;;;;2.00;1.80;;;14.90;58.50;;;;;;5576340;23;20274;-58
2022/06/24 05:17:41;;;;;;;2.08;1.58;;;14.90;58.60;;;;;;4970305;23;20317;-57
2022/06/24 05:20:12;;;;;;;2.45;1.70;;;14.90;58.50;;;;;;4964655;28;20220;-59
2022/06/24 05:22:43;;;;;;;2.40;1.50;;;14.90;58.60;;;;;;4965703;28;20290;-58
2022/06/24 05:25:14;;;;;;;1.55;1.45;;;14.90;58.50;;;;;;4972593;28;20305;-56
2022/06/24 05:27:45;;;;;;;2.00;1.60;;;14.90;58.50;;;;;;4978739;28;20197;-58
2022/06/24 05:30:18;;;;;;;1.70;1.50;;;14.90;58.50;;;;;;4972133;28;20201;-59
2022/06/24 05:32:49;;;;;;;1.60;1.50;;;14.90;58.50;;;;;;4971958;28;20203;-60
2022/06/24 05:35:19;;;;;;;1.80;1.52;;;14.90;58.50;;;;;;4971704;28;20705;-60
2022/06/24 05:37:50;;;;;;;1.88;1.67;;;14.90;58.50;;;;;;4980386;28;20197;-58
2022/06/24 05:40:21;;;;;;;1.83;1.42;;;14.90;58.50;;;;;;4991588;28;20201;-59
2022/06/24 05:42:52;;;;;;;2.10;1.90;;;14.90;58.50;;;;;;4991554;28;20667;-58
2022/06/24 05:45:26;;;;;;;2.80;1.73;;;14.90;58.50;;;;;;4991091;28;20618;-57
2022/06/24 05:47:57;;;;;;;2.20;1.60;;;14.90;58.50;;;;;;4991473;28;20712;-58
2022/06/24 05:50:28;;;;;;;2.05;1.60;;;14.90;58.50;;;;;;4977471;28;20198;-57
2022/06/24 05:55:45;;;;;;;3.30;1.85;;;14.90;58.50;;;;;;4972460;28;20289;-58
2022/06/24 05:58:16;;;;;;;1.40;1.30;;;14.90;58.50;;;;;;4975275;28;20560;-57
2022/06/24 06:00:48;;;;;;;2.00;1.67;;;14.90;58.50;;;;;;4976202;28;20253;-57
2022/06/24 06:03:19;;;;;;;1.75;1.55;;;14.90;58.50;;;;;;4975617;28;20214;-57
2022/06/24 06:05:50;;;;;;;2.08;1.60;;;14.90;58.60;;;;;;4974892;28;20700;-58
2022/06/24 06:08:21;;;;;;;1.50;1.40;;;14.90;58.50;;;;;;4975261;28;20218;-57
2022/06/24 06:10:51;;;;;;;1.98;1.70;;;14.90;58.50;;;;;;4966521;28;20199;-57
2022/06/24 06:13:22;;;;;;;2.72;1.40;;;14.90;58.60;;;;;;4967011;28;20673;-58
2022/06/24 06:15:55;;;;;;;1.92;1.70;;;14.90;58.50;;;;;;4975496;28;20214;-55
2022/06/24 06:18:25;;;;;;;2.45;1.75;;;14.90;58.60;;;;;;4986191;28;20200;-58
2022/06/24 06:21:02;;;;;;;1.55;1.45;;;14.90;58.50;;;;;;4977628;28;20208;-58
2022/06/24 06:23:32;;;;;;;2.17;1.70;;;14.90;58.50;;;;;;4975945;28;20572;-58
2022/06/24 06:26:04;;;;;;;2.25;1.52;;;14.90;58.50;;;;;;4967259;28;20242;-57
2022/06/24 06:28:35;;;;;;;1.65;1.55;;;14.90;58.50;;;;;;4967951;28;20285;-56
2022/06/24 06:31:09;;;;;;;1.83;1.60;;;14.90;58.50;;;;;;4975814;28;20574;-58
2022/06/24 06:33:41;;;;;;;2.42;1.63;;;14.90;58.50;;;;;;4975065;28;20285;-56
2022/06/24 06:36:13;;;;;;;1.90;1.60;;;14.90;58.50;;;;;;4975663;28;20202;-57
2022/06/24 06:38:45;;;;;;;2.20;1.63;;;14.90;58.50;;;;;;4974505;28;20194;-58
2022/06/24 06:41:17;;;;;;;2.03;1.80;;;14.90;58.50;;;;;;4974992;28;20225;-56
2022/06/24 06:43:47;;;;;;;2.47;1.90;;;14.90;58.50;;;;;;4974811;28;20329;-59
2022/06/24 06:46:20;;;;;;;1.92;1.75;;;14.90;58.60;;;;;;4974764;28;20198;-60
2022/06/24 06:48:51;;;;;;;2.10;1.70;;;14.90;58.60;;;;;;4974979;28;20205;-60
2022/06/24 06:51:21;;;;;;;2.13;1.80;;;14.90;58.60;;;;;;4974615;28;20206;-60
2022/06/24 06:53:52;;;;;;;2.00;1.90;;;14.90;58.60;;;;;;4975149;28;20237;-60
2022/06/24 06:56:23;;;;;;;1.70;1.58;;;14.90;58.60;;;;;;4974631;28;20201;-60
2022/06/24 06:58:54;;;;;;;2.45;1.70;;;14.90;58.60;;;;;;4974595;28;20277;-60
2022/06/24 07:01:26;;;;;;;2.22;1.60;;;14.90;58.60;;;;;;4974696;28;20646;-59
2022/06/24 07:03:57;;;;;;;1.77;1.67;;;14.90;58.60;;;;;;4974364;28;20320;-60
2022/06/24 07:06:28;;;;;;;2.28;2.08;;;14.90;58.60;;;;;;4974928;28;20685;-59
2022/06/24 07:08:58;;;;;;;1.70;1.60;;;14.90;58.60;;;;;;4973484;28;20198;-60
2022/06/24 07:11:30;;;;;;;1.70;1.60;;;14.90;58.50;;;;;;4975169;28;20198;-60
2022/06/24 07:14:01;;;;;;;1.88;1.70;;;14.90;58.50;;;;;;4975043;28;20191;-59
2022/06/24 07:16:34;;;;;;;2.15;1.85;;;14.90;58.50;;;;;;4974556;28;20209;-60
2022/06/24 07:19:05;;;;;;;2.08;1.88;;;14.90;58.50;;;;;;4984742;28;20194;-58
2022/06/24 07:21:35;;;;;;;2.17;1.73;;;14.90;58.50;;;;;;4973909;28;20210;-58
2022/06/24 07:24:09;;;;;;;2.13;1.90;;;14.90;58.50;;;;;;4974462;28;20237;-58
2022/06/24 07:26:39;;;;;;;1.95;1.75;;;14.90;58.50;;;;;;4974101;28;20261;-57
2022/06/24 07:29:10;;;;;;;2.10;1.90;;;14.90;58.50;;;;;;4974506;28;20189;-59
2022/06/24 07:31:43;;;;;;;3.90;2.00;;;14.90;58.50;;;;;;4974422;28;20202;-60
2022/06/24 07:34:17;;;;;;;2.20;1.70;;;14.90;58.60;;;;;;4974026;28;20221;-60
2022/06/24 07:36:47;;;;;;;2.72;2.05;;;14.90;58.50;;;;;;4974012;28;20220;-59
2022/06/24 07:39:18;;;;;;;2.05;1.85;;;14.90;58.50;;;;;;4973190;28;20210;-60
2022/06/24 07:41:49;;;;;;;2.15;1.80;;;14.80;58.50;;;;;;4989520;28;20198;-60
2022/06/24 07:44:20;;;;;;;1.98;1.80;;;14.90;58.50;;;;;;4993376;28;20239;-60
2022/06/24 07:46:53;;;;;;;2.17;1.90;;;14.80;58.50;;;;;;4993584;28;20220;-59
2022/06/24 07:49:24;;;;;;;2.35;2.13;;;14.80;58.50;;;;;;4988876;28;20198;-60
2022/06/24 07:51:55;;;;;;;2.33;2.03;;;14.90;58.50;;;;;;4974590;28;20672;-59
2022/06/24 07:54:25;;;;;;;2.25;2.00;;;14.80;58.50;;;;;;4974250;28;20297;-60
2022/06/24 07:56:57;;;;;;;2.00;1.80;;;14.80;58.50;;;;;;4964153;28;20250;-59
2022/06/24 07:59:29;;;;;;;2.40;2.20;;;14.80;58.50;;;;;;4955375;29;20195;-61
2022/06/24 08:02:02;;;;;;;2.97;2.05;;;14.80;58.50;;;;;;4966900;28;20198;-60
2022/06/24 08:04:33;;;;;;;2.47;2.22;;;14.80;58.50;;;;;;4973958;28;20689;-60
2022/06/24 08:07:04;;;;;;;2.72;1.90;;;14.80;58.50;;;;;;4974022;28;20202;-60
2022/06/24 08:09:37;;;;;;;2.30;1.98;;;14.80;58.60;;;;;;4974077;28;20328;-59
2022/06/24 08:12:08;;;;;;;2.20;1.98;;;14.80;58.60;;;;;;4971392;28;20203;-60
2022/06/24 08:14:39;;;;;;;2.20;2.00;;;14.80;58.60;;;;;;4980382;23;20309;-51
2022/06/24 08:17:11;;;;;;;2.30;1.98;;;14.80;58.60;;;;;;4954455;28;20778;-50
2022/06/24 08:19:42;;;;;;;2.45;1.92;;;14.80;58.60;;;;;;4947027;28;20204;-51
2022/06/24 08:22:13;;;;;;;2.60;2.20;;;14.80;58.60;;;;;;4935473;29;20261;-51
2022/06/24 08:24:44;;;;;;;3.17;2.30;;;14.80;58.60;;;;;;4935030;29;20231;-51
2022/06/24 08:27:14;;;;;;;1.70;1.55;;;14.80;58.60;;;;;;4934593;29;20200;-53
2022/06/24 08:29:48;;;;;;;2.17;1.80;;;14.80;58.60;;;;;;4933302;29;20600;-51
2022/06/24 08:32:21;;;;;;;2.22;2.03;;;14.80;58.70;;;;;;4934595;29;20206;-50
2022/06/24 08:34:52;;;;;;;2.05;1.85;;;14.80;58.60;;;;;;4934913;29;20219;-51
2022/06/24 08:37:22;;;;;;;2.28;2.00;;;14.70;58.60;;;;;;4935150;29;20290;-49
2022/06/24 08:39:53;;;;;;;1.88;1.67;;;14.80;58.60;;;;;;4935242;29;20541;-49
2022/06/24 08:42:29;;;;;;;2.10;1.90;;;14.70;58.60;;;;;;4934975;29;20200;-49
2022/06/24 08:45:02;;;;;;;2.00;1.80;;;14.70;58.60;;;;;;4934951;29;20281;-52
2022/06/24 08:47:35;;;;;;;2.35;2.00;;;14.70;58.60;;;;;;4934892;29;20199;-53
2022/06/24 08:50:08;;;;;;;3.13;2.08;;;14.80;58.60;;;;;;4934666;29;20631;-49
2022/06/24 08:52:39;;;;;;;2.13;1.92;;;14.70;58.60;;;;;;4934677;29;20200;-50
2022/06/24 08:55:11;;;;;;;2.65;1.80;;;14.70;58.60;;;;;;4934627;29;20224;-50
2022/06/24 08:57:41;;;;;;;2.15;1.65;;;14.70;58.60;;;;;;4934425;29;20671;-49
2022/06/24 09:00:13;;;;;;;2.20;1.77;;;14.70;58.70;;;;;;4934794;29;20203;-50
2022/06/24 09:02:45;;;;;;;1.90;1.77;;;14.70;58.70;;;;;;4932484;29;20205;-51
2022/06/24 09:05:17;;;;;;;2.53;1.67;;;14.70;58.70;;;;;;4934177;29;20242;-48
2022/06/24 09:07:48;;;;;;;1.80;1.70;;;14.70;58.70;;;;;;4932046;29;20207;-47
2022/06/24 09:10:19;;;;;;;2.13;1.80;;;14.70;58.70;;;;;;4931534;29;20207;-48
2022/06/24 09:12:50;;;;;;;2.22;1.85;;;14.70;58.90;;;;;;4934296;29;20207;-51
2022/06/24 09:15:23;;;;;;;1.90;1.58;;;14.70;59.10;;;;;;4945255;28;20223;-51
2022/06/24 09:17:56;;;;;;;1.60;1.42;;;14.70;59.00;;;;;;4937956;29;20195;-49
2022/06/24 09:20:28;;;;;;;2.15;1.80;;;14.70;59.00;;;;;;4936695;28;20194;-47
2022/06/24 09:23:06;;;;;;;2.45;1.70;;;14.70;59.00;;;;;;4949963;28;20265;-51
2022/06/24 09:25:48;;;;;;;1.95;1.77;;;14.70;58.90;;;;;;4938880;28;20231;-51
2022/06/24 09:28:27;;;;;;;1.88;1.67;;;14.70;58.90;;;;;;4932836;29;20206;-49
2022/06/24 09:31:04;;;;;;;2.40;1.90;;;14.70;58.90;;;;;;4940570;28;20201;-51
2022/06/24 09:33:44;;;;;;;2.08;1.90;;;14.70;58.90;;;;;;4939606;28;20655;-52
2022/06/24 09:36:16;;;;;;;2.22;2.03;;;14.70;58.90;;;;;;4933024;29;20918;-49
2022/06/24 09:38:59;;;;;;;2.30;2.00;;;14.70;58.90;;;;;;4932624;29;20200;-49
2022/06/24 09:41:31;;;;;;;2.33;2.00;;;14.70;58.90;;;;;;4944717;28;20230;-51
2022/06/24 09:44:03;;;;;;;2.00;1.80;;;14.70;58.90;;;;;;4942797;28;20259;-53
2022/06/24 09:46:33;;;;;;;2.10;1.90;;;14.70;58.90;;;;;;4934276;29;20598;-52
2022/06/24 09:49:09;;;;;;;2.25;2.03;;;14.70;58.90;;;;;;4933525;29;20206;-52
2022/06/24 09:51:40;;;;;;;2.35;2.15;;;14.70;59.00;;;;;;4933174;29;20206;-53
2022/06/24 09:54:11;;;;;;;2.20;2.00;;;14.70;59.00;;;;;;4933556;29;20226;-52
2022/06/24 09:56:44;;;;;;;2.53;2.08;;;14.70;58.90;;;;;;4933593;29;20247;-51
2022/06/24 10:02:04;;;;;;;2.38;2.10;;;14.70;58.90;;;;;;4946378;29;20205;-50
2022/06/24 10:04:37;;;;;;;2.20;1.85;;;14.70;59.10;;;;;;4933393;29;20229;-49
2022/06/24 10:07:08;;;;;;;2.40;1.95;;;14.70;59.60;;;;;;4933475;28;20199;-51
2022/06/24 10:09:40;;;;;;;3.75;2.03;;;14.70;59.70;;;;;;4934933;29;20871;-48
2022/06/24 10:12:13;;;;;;;3.63;1.80;;;14.70;62.00;;;;;;4947910;29;20194;-49
2022/06/24 10:14:44;;;;;;;3.45;2.13;;;14.80;63.50;;;;;;4982605;23;20293;-59
2022/06/24 10:17:16;;;;;;;2.70;2.03;;;14.80;63.70;;;;;;4991789;28;20201;-60
2022/06/24 10:19:50;;;;;;;5.72;2.00;;;14.90;63.60;;;;;;4990843;28;20674;-60
2022/06/24 10:22:44;;;;;;;3.95;1.92;;;14.90;63.50;;;;;;4989900;28;20197;-60
2022/06/24 10:25:19;;;;;;;3.40;2.10;;;15.00;63.60;;;;;;4990773;28;20683;-61
2022/06/24 10:28:08;;;;;;;2.92;2.22;;;15.00;63.50;;;;;;4990963;28;20229;-59
2022/06/24 10:31:08;;;;;;;2.05;1.70;;;15.00;63.30;;;;;;4991510;28;20197;-59
2022/06/24 10:33:39;;;;;;;2.08;1.80;;;15.00;63.20;;;;;;4911115;29;20619;-60
2022/06/24 10:36:12;;;;;;;5.47;3.22;;;15.00;62.90;;;;;;4976798;28;20202;-61
2022/06/24 10:38:44;;;;;;;3.70;2.30;;;15.10;63.20;;;;;;4990518;28;20567;-60
2022/06/24 10:41:14;;;;;;;4.25;2.65;;;15.10;63.10;;;;;;4991498;28;20216;-60
2022/06/24 10:43:46;;;;;;;4.63;2.40;;;15.10;62.90;;;;;;4991732;28;20203;-61
2022/06/24 10:46:21;;;;;;;3.92;2.10;;;15.10;62.80;;;;;;4994551;28;20221;-60
2022/06/24 10:49:05;;;;;;;5.25;2.63;;;15.10;62.50;;;;;;4994696;28;20649;-59
2022/06/24 10:51:37;;;;;;;4.65;2.90;;;15.10;62.30;;;;;;4993947;28;20207;-60
2022/06/24 10:54:17;;;;;;;3.55;2.42;;;15.10;62.10;;;;;;4994467;28;20220;-61
2022/06/24 10:56:50;;;;;;;3.83;2.47;;;15.10;62.00;;;;;;4993995;28;20248;-61
2022/06/24 10:59:22;;;;;;;3.47;2.50;;;15.10;61.90;;;;;;4994860;28;20201;-60
2022/06/24 11:01:53;;;;;;;5.28;2.83;;;15.10;61.70;;;;;;4994375;28;20194;-60
2022/06/24 11:04:27;;;;;;;4.50;2.40;;;15.10;61.70;;;;;;4993991;28;20260;-60
2022/06/24 11:07:18;;;;;;;5.10;3.35;;;15.10;61.70;;;;;;4994148;28;20193;-59
2022/06/24 11:09:49;;;;;;;5.28;3.58;;;15.10;61.60;;;;;;4994227;28;20204;-60
2022/06/24 11:12:32;;;;;;;4.43;3.15;;;15.10;61.80;;;;;;4994487;28;20198;-60
2022/06/24 11:15:03;;;;;;;3.75;2.90;;;15.10;62.10;;;;;;4996215;23;20591;-59
2022/06/24 11:17:34;;;;;;;4.63;2.95;;;15.10;62.00;;;;;;4955138;28;20254;-58
2022/06/24 11:20:08;;;;;;;3.80;3.17;;;15.10;61.90;;;;;;4954741;29;20270;-59
2022/06/24 11:22:50;;;;;;;3.80;2.47;;;15.00;61.70;;;;;;4955167;28;20716;-59
2022/06/24 11:25:22;;;;;;;3.53;2.60;;;15.10;61.60;;;;;;4954917;28;20237;-59
2022/06/24 11:27:53;;;;;;;3.85;2.72;;;15.00;62.20;;;;;;4954914;28;20195;-59
2022/06/24 11:30:23;;;;;;;4.22;2.80;;;15.00;61.30;;;;;;4955132;29;20662;-60
2022/06/24 11:32:54;;;;;;;3.88;2.55;;;15.00;61.20;;;;;;4954405;28;20201;-59
2022/06/24 11:35:26;;;;;;;3.00;2.20;;;15.00;61.10;;;;;;4955176;28;20223;-60
2022/06/24 11:37:59;;;;;;;3.72;2.22;;;15.00;61.00;;;;;;4971769;28;20261;-59
2022/06/24 11:40:33;;;;;;;2.60;2.33;;;15.00;60.90;;;;;;4974564;28;20326;-59
2022/06/24 11:43:09;;;;;;;4.13;2.47;;;15.00;60.90;;;;;;4973772;28;20286;-59
2022/06/24 11:45:41;;;;;;;3.90;2.45;;;15.00;60.80;;;;;;4973694;28;20664;-61
2022/06/24 11:48:12;;;;;;;3.00;2.60;;;15.00;60.70;;;;;;4974159;28;20205;-60
2022/06/24 11:50:43;;;;;;;3.03;2.58;;;15.00;60.70;;;;;;4958323;28;20206;-59
2022/06/24 11:53:16;;;;;;;4.15;2.58;;;15.00;61.50;;;;;;4955219;28;20206;-59
2022/06/24 11:55:52;;;;;;;3.58;2.42;;;15.00;60.70;;;;;;4953850;28;20633;-59
2022/06/24 11:58:24;;;;;;;4.45;2.90;;;15.00;60.60;;;;;;4954174;29;20302;-60
2022/06/24 12:00:55;;;;;;;3.08;2.15;;;15.00;60.60;;;;;;4952992;29;20210;-60
2022/06/24 12:03:28;;;;;;;3.97;2.38;;;14.90;60.50;;;;;;4952198;29;20203;-60
2022/06/24 12:05:59;;;;;;;3.47;2.28;;;14.90;60.50;;;;;;4953157;28;20238;-60
2022/06/24 12:08:32;;;;;;;2.83;2.20;;;15.00;60.60;;;;;;4950865;29;20203;-60
2022/06/24 12:11:03;;;;;;;3.55;2.60;;;14.90;60.40;;;;;;4953049;29;20203;-58
2022/06/24 12:13:34;;;;;;;4.57;2.35;;;14.90;60.30;;;;;;4953742;28;20306;-60
2022/06/24 12:16:05;;;;;;;3.67;1.92;;;14.90;60.30;;;;;;4953521;28;20333;-60
2022/06/24 12:18:36;;;;;;;4.55;2.58;;;14.90;60.20;;;;;;4951919;28;20199;-60
2022/06/24 12:21:10;;;;;;;2.88;2.25;;;14.90;60.20;;;;;;4952818;28;20199;-59
2022/06/24 12:23:44;;;;;;;3.42;2.40;;;15.00;60.20;;;;;;4952434;29;20199;-60
2022/06/24 12:26:18;;;;;;;3.97;2.33;;;14.90;60.10;;;;;;4951876;28;20975;-62
2022/06/24 12:29:00;;;;;;;2.50;2.10;;;14.90;60.10;;;;;;4952073;29;20203;-59
2022/06/24 12:31:31;;;;;;;4.28;2.17;;;14.90;60.10;;;;;;4951901;28;20242;-59
2022/06/24 12:34:02;;;;;;;3.05;2.33;;;14.90;60.10;;;;;;4951526;28;20210;-58
2022/06/24 12:36:41;;;;;;;3.03;2.20;;;14.90;60.00;;;;;;4952411;29;20203;-60
2022/06/24 12:39:14;;;;;;;3.30;2.30;;;14.90;60.10;;;;;;4951802;28;20210;-58
2022/06/24 12:41:46;;;;;;;3.85;2.30;;;14.90;60.00;;;;;;4951540;28;20265;-58
2022/06/24 12:44:18;;;;;;;3.35;2.10;;;14.90;60.00;;;;;;4951778;28;20277;-60
2022/06/24 12:52:39;;;;;;;4.32;2.50;;;14.90;60.00;;;;;;4951718;29;20503;-59
2022/06/24 12:55:13;;;;;;;3.08;2.13;;;14.90;60.00;;;;;;4951666;28;20245;-61
2022/06/24 12:57:44;;;;;;;2.65;2.30;;;14.90;60.00;;;;;;4952050;28;20209;-60
2022/06/24 13:00:16;;;;;;;2.50;2.25;;;14.90;59.90;;;;;;4952010;29;20199;-60
2022/06/24 13:02:49;;;;;;;2.70;2.15;;;14.90;59.90;;;;;;4951285;28;20207;-60
2022/06/24 13:05:20;;;;;;;3.42;2.35;;;14.90;59.90;;;;;;4952188;28;20769;-61
2022/06/24 13:07:51;;;;;;;4.03;2.25;;;14.90;59.90;;;;;;4951639;28;20230;-59
2022/06/24 13:10:24;;;;;;;2.50;2.03;;;14.90;59.90;;;;;;4952284;28;20199;-59
2022/06/24 13:12:55;;;;;;;2.78;2.08;;;14.90;59.80;;;;;;4951912;28;20206;-58
2022/06/24 13:15:26;;;;;;;2.70;2.08;;;14.90;59.80;;;;;;4951961;28;20324;-58
2022/06/24 13:17:57;;;;;;;3.63;2.38;;;14.90;59.80;;;;;;4951784;29;20257;-59
2022/06/24 13:20:28;;;;;;;3.22;2.30;;;14.90;59.80;;;;;;4952480;29;20210;-59
2022/06/24 13:22:59;;;;;;;3.30;2.30;;;14.90;59.80;;;;;;4951912;29;20305;-59
2022/06/24 13:25:31;;;;;;;2.75;2.20;;;14.80;59.70;;;;;;4951943;28;20238;-60
2022/06/24 13:28:02;;;;;;;2.83;2.00;;;14.90;59.80;;;;;;4951835;29;20198;-59
2022/06/24 13:30:33;;;;;;;3.42;2.30;;;14.90;59.80;;;;;;4952006;29;20255;-60
2022/06/24 13:33:04;;;;;;;3.80;2.38;;;14.80;59.70;;;;;;4951756;29;20837;-60
2022/06/24 13:35:35;;;;;;;2.25;2.05;;;14.80;59.70;;;;;;4951581;28;20262;-60
2022/06/24 13:38:05;;;;;;;2.88;1.92;;;14.90;59.80;;;;;;4951960;29;20195;-59
2022/06/24 13:40:38;;;;;;;3.53;2.28;;;14.80;59.70;;;;;;4951834;29;20207;-60
2022/06/24 13:43:09;;;;;;;3.80;2.38;;;14.80;59.70;;;;;;4951443;29;20207;-60
2022/06/24 13:45:40;;;;;;;2.63;2.15;;;14.90;59.70;;;;;;4951663;28;20234;-59
2022/06/24 13:48:10;;;;;;;3.60;2.55;;;14.80;59.70;;;;;;4951774;29;20630;-59